Time;durP1;ratioP1;P1;durP2;ratioP2;P2;SDS_P1;SDS_P2;PMS_P1;PMS_P2;Temp;Humidity;BMP_temperature;BMP_pressure;BME280_temperature;BME280_humidity;BME280_pressure;Samples;Min_cycle;Max_cycle;Signal;HPM_P1;HPM_P2
2022/02/06 00:00:16;;;;;;;4.97;1.00;;;6.00;99.90;;;;;;5049666;28;20406;-53
2022/02/06 00:02:45;;;;;;;4.25;1.13;;;5.90;99.90;;;;;;5051516;28;20032;-55
2022/02/06 00:05:12;;;;;;;4.93;0.77;;;6.00;99.90;;;;;;5050739;28;20086;-54
2022/02/06 00:07:38;;;;;;;2.03;0.85;;;6.00;99.90;;;;;;5050700;28;20029;-57
2022/02/06 00:10:03;;;;;;;;;;;5.90;99.90;;;;;;5052282;28;20032;-56
2022/02/06 00:12:29;;;;;;;2.03;1.50;;;5.90;99.90;;;;;;5048897;28;19916;-57
2022/02/06 00:14:55;;;;;;;4.13;0.90;;;5.90;99.90;;;;;;5048401;28;20036;-56
2022/02/06 00:17:20;;;;;;;1.83;1.20;;;5.90;99.90;;;;;;5057565;28;20029;-57
2022/02/06 00:19:46;;;;;;;6.88;0.80;;;5.80;99.90;;;;;;5051728;28;20036;-58
2022/02/06 00:22:24;;;;;;;;;;;5.70;99.90;;;;;;5049168;28;20395;-56
2022/02/06 00:25:06;;;;;;;4.15;1.02;;;5.70;99.90;;;;;;5054216;28;19913;-56
2022/02/06 00:32:50;;;;;;;1.90;0.68;;;5.60;99.90;;;;;;5049443;28;20036;-57
2022/02/06 00:35:28;;;;;;;6.53;2.35;;;5.60;99.90;;;;;;5048564;28;20094;-57
2022/02/06 00:43:24;;;;;;;3.58;1.30;;;5.50;99.90;;;;;;5048779;28;20922;-57
2022/02/06 00:45:50;;;;;;;2.58;1.00;;;5.50;99.90;;;;;;5050851;28;20041;-56
2022/02/06 00:48:21;;;;;;;2.10;0.80;;;5.50;99.90;;;;;;5049026;28;20021;-57
2022/02/06 00:50:50;;;;;;;3.55;0.80;;;5.50;99.90;;;;;;5049937;28;20115;-56
2022/02/06 00:53:18;;;;;;;2.15;1.55;;;5.40;99.90;;;;;;5051131;28;20486;-57
2022/02/06 00:55:44;;;;;;;2.85;1.08;;;5.40;99.90;;;;;;5048880;28;20051;-56
2022/02/06 00:58:10;;;;;;;4.60;1.00;;;5.50;99.90;;;;;;5048893;28;20035;-56
2022/02/06 01:00:36;;;;;;;6.47;0.80;;;5.40;99.90;;;;;;5048131;28;20025;-54
2022/02/06 01:03:01;;;;;;;;;;;5.40;99.90;;;;;;5050208;28;20056;-57
2022/02/06 01:05:27;;;;;;;1.17;0.70;;;5.40;99.90;;;;;;5048625;28;20475;-56
2022/02/06 01:07:54;;;;;;;5.10;0.70;;;5.40;99.90;;;;;;5047563;28;20071;-55
2022/02/06 01:10:23;;;;;;;1.42;0.82;;;5.40;99.90;;;;;;5045967;28;20049;-56
2022/02/06 01:12:55;;;;;;;4.60;2.75;;;5.40;99.90;;;;;;5047293;28;20489;-56
2022/02/06 01:15:25;;;;;;;2.38;0.77;;;5.40;99.90;;;;;;5048366;28;20032;-57
2022/02/06 01:18:00;;;;;;;4.22;2.15;;;5.40;99.90;;;;;;5050552;28;20119;-56
2022/02/06 01:20:33;;;;;;;7.00;1.23;;;5.40;99.90;;;;;;5045467;28;20020;-55
2022/02/06 01:23:08;;;;;;;5.68;1.10;;;5.30;99.90;;;;;;5047942;28;20036;-56
2022/02/06 01:25:41;;;;;;;2.83;0.98;;;5.40;99.90;;;;;;5047462;28;20036;-53
2022/02/06 01:28:11;;;;;;;2.10;0.85;;;5.30;99.90;;;;;;5046204;28;20095;-56
2022/02/06 01:30:54;;;;;;;3.85;1.00;;;5.30;99.90;;;;;;5048094;28;20111;-56
2022/02/06 01:33:27;;;;;;;3.50;1.55;;;5.30;99.90;;;;;;5047455;28;20023;-54
2022/02/06 01:40:59;;;;;;;3.75;0.63;;;5.30;99.90;;;;;;5047607;28;20062;-56
2022/02/06 01:43:34;;;;;;;3.42;1.02;;;5.30;99.90;;;;;;5047557;28;20107;-56
2022/02/06 02:02:59;;;;;;;2.15;1.08;;;5.20;99.90;;;;;;4995218;28;20193;-56
2022/02/06 02:05:58;;;;;;;2.97;0.98;;;5.10;99.90;;;;;;5046335;28;20048;-56
2022/02/06 02:12:07;;;;;;;2.60;1.10;;;5.10;99.90;;;;;;5047728;28;20732;-55
2022/02/06 02:13:55;;;;;;;3.72;1.10;;;5.10;99.90;;;;;;5033659;28;20037;-56
2022/02/06 02:24:29;;;;;;;1.83;0.75;;;5.10;99.90;;;;;;5044754;28;21627;-55
2022/02/06 02:42:56;;;;;;;3.33;0.95;;;5.20;99.90;;;;;;5045588;28;20655;-55
2022/02/06 02:48:10;;;;;;;2.50;0.95;;;5.20;99.90;;;;;;5033629;28;20064;-57
2022/02/06 02:50:40;;;;;;;4.85;0.95;;;5.20;99.90;;;;;;5045258;28;20025;-53
2022/02/06 02:53:14;;;;;;;2.55;2.13;;;5.20;99.90;;;;;;5044858;28;20032;-56
2022/02/06 03:03:33;;;;;;;5.93;1.50;;;5.30;99.90;;;;;;5047500;28;20044;-56
2022/02/06 03:05:58;;;;;;;2.22;0.82;;;5.30;99.90;;;;;;5043769;28;20067;-54
2022/02/06 03:08:25;;;;;;;3.95;1.17;;;5.30;99.90;;;;;;5048943;22;20101;-79
2022/02/06 03:10:52;;;;;;;3.97;0.70;;;5.30;99.90;;;;;;5036167;28;20055;-78
2022/02/06 03:13:21;;;;;;;4.35;0.80;;;5.30;99.90;;;;;;5042245;28;20417;-78
2022/02/06 03:15:59;;;;;;;4.78;0.73;;;5.30;99.90;;;;;;5044830;28;20064;-79
2022/02/06 03:18:29;;;;;;;1.98;0.73;;;5.30;99.90;;;;;;5045353;28;20047;-78
2022/02/06 03:20:55;;;;;;;3.20;0.90;;;5.30;99.90;;;;;;5068445;22;20064;-78
2022/02/06 03:23:21;;;;;;;4.38;1.00;;;5.40;99.90;;;;;;5070006;28;20123;-77
2022/02/06 03:25:53;;;;;;;3.45;0.80;;;5.40;99.90;;;;;;5070986;28;20107;-77
2022/02/06 03:28:23;;;;;;;1.60;0.82;;;5.40;99.90;;;;;;5066396;28;20028;-77
2022/02/06 03:30:49;;;;;;;4.35;1.25;;;5.40;99.90;;;;;;5058790;28;20106;-78
2022/02/06 03:33:15;;;;;;;;;;;5.40;99.90;;;;;;5062070;28;20037;-78
2022/02/06 03:35:42;;;;;;;3.10;0.60;;;5.40;99.90;;;;;;5058104;28;19922;-78
2022/02/06 03:38:08;;;;;;;3.83;0.60;;;5.40;99.90;;;;;;5060535;28;20031;-78
2022/02/06 03:41:11;;;;;;;1.58;0.55;;;5.40;99.90;;;;;;5057239;28;20178;-78
2022/02/06 03:43:35;;;;;;;3.42;0.73;;;5.40;99.90;;;;;;5060592;28;20204;-78
2022/02/06 03:46:09;;;;;;;3.38;0.75;;;5.40;99.90;;;;;;5058118;28;20157;-77
2022/02/06 03:48:52;;;;;;;5.60;1.35;;;5.40;99.90;;;;;;5063524;28;20501;-77
2022/02/06 03:51:24;;;;;;;2.50;0.50;;;5.40;99.90;;;;;;5071282;28;20024;-78
2022/02/06 03:53:52;;;;;;;2.50;0.73;;;5.40;99.90;;;;;;5070466;28;20495;-78
2022/02/06 03:56:20;;;;;;;5.10;0.60;;;5.40;99.90;;;;;;5059269;28;20734;-78
2022/02/06 03:58:46;;;;;;;1.70;0.60;;;5.40;99.90;;;;;;5062363;28;20456;-78
2022/02/06 04:01:11;;;;;;;4.80;1.45;;;5.40;99.90;;;;;;5066230;28;20492;-78
2022/02/06 04:03:37;;;;;;;0.73;0.40;;;5.50;99.90;;;;;;5068571;28;20653;-77
2022/02/06 04:06:03;;;;;;;0.70;0.40;;;5.50;99.90;;;;;;5070900;28;20017;-78
2022/02/06 04:08:30;;;;;;;0.93;0.57;;;5.50;99.90;;;;;;5069456;28;20039;-78
2022/02/06 04:10:57;;;;;;;2.20;0.40;;;5.50;99.90;;;;;;5070270;28;20074;-78
2022/02/06 04:13:23;;;;;;;0.90;0.40;;;5.50;99.90;;;;;;5069845;28;20299;-78
2022/02/06 04:15:55;;;;;;;;;;;5.50;99.90;;;;;;5070636;28;20035;-77
2022/02/06 04:20:57;;;;;;;1.27;0.40;;;5.50;99.90;;;;;;5068436;28;20048;-77
2022/02/06 04:23:23;;;;;;;1.80;0.40;;;5.60;99.90;;;;;;5070095;28;20489;-77
2022/02/06 04:25:49;;;;;;;0.60;0.30;;;5.60;99.90;;;;;;5069291;28;20024;-77
2022/02/06 04:28:14;;;;;;;2.25;1.02;;;5.60;99.90;;;;;;5070700;28;20142;-77
2022/02/06 04:30:40;;;;;;;1.38;0.68;;;5.60;99.90;;;;;;5069548;28;20451;-77
2022/02/06 04:33:06;;;;;;;2.33;1.25;;;5.60;99.90;;;;;;5071886;28;20028;-77
2022/02/06 04:35:35;;;;;;;0.68;0.30;;;5.60;99.90;;;;;;5070019;28;20028;-77
2022/02/06 04:38:22;;;;;;;0.60;0.40;;;5.60;99.90;;;;;;5068395;28;20453;-76
2022/02/06 04:43:37;;;;;;;3.50;0.40;;;5.60;99.90;;;;;;5071566;28;20025;-77
2022/02/06 04:54:13;;;;;;;0.57;0.30;;;5.60;99.90;;;;;;5069014;28;20071;-76
2022/02/06 05:18:32;;;;;;;0.93;0.52;;;5.70;99.90;;;;;;5070036;28;20043;-76
2022/02/06 05:26:36;;;;;;;1.58;0.50;;;5.70;99.90;;;;;;5068705;28;20481;-77
2022/02/06 05:29:33;;;;;;;1.10;0.30;;;5.70;99.90;;;;;;5069267;28;20504;-77
2022/02/06 05:34:13;;;;;;;1.20;0.32;;;5.70;99.90;;;;;;5068572;28;20066;-77
2022/02/06 05:36:39;;;;;;;1.63;0.55;;;5.70;99.90;;;;;;5068353;28;20090;-77
2022/02/06 05:39:04;;;;;;;1.45;0.60;;;5.70;99.90;;;;;;5069079;28;20031;-77
2022/02/06 05:41:30;;;;;;;;;;;5.70;99.90;;;;;;5069574;28;20032;-77
2022/02/06 05:43:56;;;;;;;0.98;0.45;;;5.80;99.90;;;;;;5067442;28;19915;-77
2022/02/06 05:46:21;;;;;;;2.95;1.27;;;5.70;99.90;;;;;;5067715;28;20103;-77
2022/02/06 05:48:47;;;;;;;1.70;0.60;;;5.80;99.90;;;;;;5067880;28;20032;-77
2022/02/06 05:51:16;;;;;;;0.70;0.65;;;5.80;99.90;;;;;;5068967;28;20404;-77
2022/02/06 05:53:42;;;;;;;0.40;0.30;;;5.80;99.90;;;;;;5068740;28;20054;-77
2022/02/06 05:56:08;;;;;;;0.50;0.30;;;5.80;99.90;;;;;;5068841;28;20413;-78
2022/02/06 05:58:33;;;;;;;0.52;0.25;;;5.80;99.90;;;;;;5067089;28;20039;-78
2022/02/06 06:00:59;;;;;;;;;;;5.80;99.90;;;;;;5067045;28;20060;-77
2022/02/06 06:03:25;;;;;;;0.25;0.10;;;5.80;99.90;;;;;;5068415;28;19912;-78
2022/02/06 06:05:50;;;;;;;0.57;0.30;;;5.80;99.90;;;;;;5068468;28;20032;-78
2022/02/06 06:08:16;;;;;;;1.75;0.30;;;5.80;99.90;;;;;;5067473;28;20073;-78
2022/02/06 06:10:42;;;;;;;0.32;0.20;;;5.80;99.90;;;;;;5067235;28;20028;-78
2022/02/06 06:13:09;;;;;;;0.60;0.40;;;5.90;99.90;;;;;;5069185;28;20035;-78
2022/02/06 06:15:35;;;;;;;0.30;0.20;;;5.80;99.90;;;;;;5066196;28;20466;-78
2022/02/06 06:18:04;;;;;;;0.30;0.20;;;5.90;99.90;;;;;;5068377;28;20031;-77
2022/02/06 06:20:32;;;;;;;0.47;0.20;;;5.90;99.90;;;;;;5067806;28;20032;-77
2022/02/06 06:22:59;;;;;;;0.10;0.10;;;5.90;99.90;;;;;;5068578;28;20056;-77
2022/02/06 06:25:27;;;;;;;0.75;0.22;;;5.90;99.90;;;;;;5068064;28;20028;-77
2022/02/06 06:27:53;;;;;;;1.45;0.20;;;5.90;99.90;;;;;;5068864;28;20037;-77
2022/02/06 06:30:18;;;;;;;0.30;0.22;;;5.90;99.90;;;;;;5067724;28;20024;-77
2022/02/06 06:32:44;;;;;;;0.20;0.20;;;5.90;99.90;;;;;;5066915;28;20500;-77
2022/02/06 06:35:09;;;;;;;1.60;0.15;;;5.90;99.90;;;;;;5068316;28;20111;-77
2022/02/06 06:37:39;;;;;;;0.68;0.35;;;5.90;99.90;;;;;;5069114;28;20037;-77
2022/02/06 06:40:06;;;;;;;0.45;0.28;;;5.90;99.90;;;;;;5059935;28;20385;-77
2022/02/06 06:42:31;;;;;;;0.30;0.20;;;5.90;99.90;;;;;;5067745;28;20031;-77
2022/02/06 06:44:57;;;;;;;4.60;0.30;;;5.90;99.90;;;;;;5067705;28;20034;-77
2022/02/06 06:47:22;;;;;;;1.45;0.20;;;6.00;99.90;;;;;;5066941;28;20485;-76
2022/02/06 06:49:48;;;;;;;0.50;0.20;;;6.00;99.90;;;;;;5067409;28;20031;-76
2022/02/06 06:52:13;;;;;;;0.70;0.30;;;6.00;99.90;;;;;;5067740;28;20566;-77
2022/02/06 06:54:43;;;;;;;0.20;0.15;;;6.00;99.90;;;;;;5067881;28;20036;-77
2022/02/06 06:57:19;;;;;;;0.20;0.20;;;6.00;99.90;;;;;;5068263;28;20056;-77
2022/02/06 07:00:19;;;;;;;0.47;0.35;;;6.00;99.90;;;;;;5067893;28;20056;-77
2022/02/06 07:02:33;;;;;;;0.68;0.20;;;6.00;99.90;;;;;;5067254;28;20024;-76
2022/02/06 07:05:03;;;;;;;;;;;6.00;99.90;;;;;;5066541;28;20514;-77
2022/02/06 07:07:28;;;;;;;0.32;0.20;;;6.00;99.90;;;;;;5068231;28;20348;-77
2022/02/06 07:09:54;;;;;;;0.10;0.10;;;6.00;99.90;;;;;;5068429;28;20052;-77
2022/02/06 07:12:20;;;;;;;0.30;0.10;;;6.10;99.90;;;;;;5067213;28;20028;-77
2022/02/06 07:14:50;;;;;;;0.68;0.20;;;6.00;99.90;;;;;;5066590;28;20043;-77
2022/02/06 07:17:16;;;;;;;0.55;0.30;;;6.10;99.90;;;;;;5067952;28;20056;-78
2022/02/06 07:19:44;;;;;;;0.63;0.20;;;6.10;99.90;;;;;;5068324;28;20044;-78
2022/02/06 07:22:12;;;;;;;0.30;0.28;;;6.10;99.90;;;;;;5065765;28;20033;-77
2022/02/06 07:24:38;;;;;;;0.40;0.17;;;6.10;99.90;;;;;;5067124;28;20036;-77
2022/02/06 07:27:15;;;;;;;;;;;6.10;99.90;;;;;;5066415;28;20025;-77
2022/02/06 07:29:41;;;;;;;1.05;0.40;;;6.10;99.90;;;;;;5066389;28;19991;-77
2022/02/06 07:32:07;;;;;;;0.52;0.40;;;6.10;99.90;;;;;;5065594;28;20039;-77
2022/02/06 07:34:33;;;;;;;;;;;6.10;99.90;;;;;;5068350;28;20035;-81
2022/02/06 07:36:58;;;;;;;1.40;0.20;;;6.10;99.90;;;;;;5063371;28;19912;-77
2022/02/06 07:39:24;;;;;;;0.50;0.20;;;6.10;99.90;;;;;;5064963;28;20508;-79
2022/02/06 07:41:49;;;;;;;1.20;0.30;;;6.20;99.90;;;;;;5067224;28;20074;-79
2022/02/06 07:44:15;;;;;;;0.52;0.20;;;6.10;99.90;;;;;;5068111;28;20512;-79
2022/02/06 07:46:44;;;;;;;1.10;0.22;;;6.10;99.90;;;;;;5065923;28;20036;-76
2022/02/06 07:49:10;;;;;;;0.20;0.20;;;6.20;99.90;;;;;;5066348;28;20507;-80
2022/02/06 07:51:36;;;;;;;0.80;0.35;;;6.10;99.90;;;;;;5067986;28;20029;-80
2022/02/06 07:54:04;;;;;;;0.40;0.20;;;6.10;99.90;;;;;;5067946;28;20040;-85
2022/02/06 07:56:30;;;;;;;1.10;0.20;;;6.20;99.90;;;;;;5069769;28;20024;-79
2022/02/06 07:58:56;;;;;;;0.38;0.20;;;6.10;99.90;;;;;;5070739;28;20032;-79
2022/02/06 08:01:21;;;;;;;0.15;0.15;;;6.10;99.90;;;;;;5070434;28;20040;-76
2022/02/06 08:03:47;;;;;;;0.70;0.25;;;6.10;99.90;;;;;;5071952;28;20016;-89
2022/02/06 08:06:14;;;;;;;0.50;0.30;;;6.20;99.90;;;;;;5070773;28;20106;-81
2022/02/06 08:08:39;;;;;;;1.85;0.25;;;6.20;99.90;;;;;;5071780;28;20040;-83
2022/02/06 08:11:07;;;;;;;0.80;0.20;;;6.20;99.90;;;;;;5069409;28;20086;-76
2022/02/06 08:13:45;;;;;;;3.20;2.45;;;6.20;99.90;;;;;;5070874;28;20050;-77
2022/02/06 08:16:11;;;;;;;1.45;0.30;;;6.20;99.90;;;;;;5070689;28;20133;-78
2022/02/06 08:18:40;;;;;;;1.80;0.20;;;6.20;99.90;;;;;;5071048;28;20077;-78
2022/02/06 08:21:09;;;;;;;0.15;0.10;;;6.20;99.90;;;;;;5070605;28;20052;-77
2022/02/06 08:23:35;;;;;;;0.52;0.20;;;6.20;99.90;;;;;;5070766;28;20052;-77
2022/02/06 08:26:01;;;;;;;0.57;0.25;;;6.20;99.90;;;;;;5070592;28;20105;-77
2022/02/06 08:28:27;;;;;;;0.68;0.45;;;6.30;99.90;;;;;;5069818;28;20040;-77
2022/02/06 08:30:53;;;;;;;;;;;6.30;99.90;;;;;;5069914;28;20024;-77
2022/02/06 08:33:19;;;;;;;0.30;0.13;;;6.30;99.90;;;;;;5068991;28;19912;-78
2022/02/06 08:35:49;;;;;;;1.33;0.25;;;6.40;99.90;;;;;;5067361;28;20037;-76
2022/02/06 08:38:14;;;;;;;0.60;0.22;;;6.40;99.90;;;;;;5070994;28;20367;-78
2022/02/06 08:40:40;;;;;;;3.17;1.25;;;6.40;99.90;;;;;;5069391;28;20032;-76
2022/02/06 08:43:06;;;;;;;4.15;2.10;;;6.40;99.90;;;;;;5070241;28;20029;-76
2022/02/06 08:45:33;;;;;;;2.30;0.93;;;6.40;99.90;;;;;;5069083;28;20017;-76
2022/02/06 08:47:58;;;;;;;1.02;0.52;;;6.40;99.90;;;;;;5070585;28;20500;-76
2022/02/06 08:50:24;;;;;;;0.52;0.35;;;6.40;99.90;;;;;;5068208;28;20024;-78
2022/02/06 08:52:50;;;;;;;1.10;0.40;;;6.50;99.90;;;;;;5068816;28;20029;-77
2022/02/06 08:55:17;;;;;;;0.60;0.20;;;6.50;99.90;;;;;;5069269;28;20086;-76
2022/02/06 08:57:48;;;;;;;0.22;0.10;;;6.50;99.90;;;;;;5069567;28;20043;-77
2022/02/06 09:00:15;;;;;;;0.10;0.10;;;6.60;99.90;;;;;;5069028;28;20039;-74
2022/02/06 09:02:41;;;;;;;5.90;1.05;;;6.70;99.90;;;;;;5070206;28;20040;-77
2022/02/06 09:05:07;;;;;;;0.55;0.20;;;6.70;99.90;;;;;;5068895;28;20101;-78
2022/02/06 09:07:33;;;;;;;;;;;6.70;99.90;;;;;;5069446;28;20104;-80
2022/02/06 09:10:01;;;;;;;0.13;0.13;;;6.70;99.90;;;;;;5070517;28;20333;-78
2022/02/06 09:12:27;;;;;;;1.05;0.20;;;6.70;99.90;;;;;;5069935;28;20028;-78
2022/02/06 09:14:54;;;;;;;0.30;0.10;;;6.70;99.90;;;;;;5068462;28;20040;-77
2022/02/06 09:17:20;;;;;;;;;;;6.70;99.90;;;;;;5069774;28;20040;-77
2022/02/06 09:19:46;;;;;;;0.77;0.27;;;6.70;99.90;;;;;;5070378;28;20257;-77
2022/02/06 09:22:15;;;;;;;1.55;0.40;;;6.80;99.90;;;;;;5082245;22;20049;-80
2022/02/06 09:24:42;;;;;;;1.08;0.38;;;6.80;99.90;;;;;;5063035;28;20048;-81
2022/02/06 09:27:11;;;;;;;0.65;0.38;;;6.80;99.90;;;;;;5063153;28;20020;-82
2022/02/06 09:29:40;;;;;;;0.77;0.20;;;6.70;99.90;;;;;;5062956;28;20099;-80
2022/02/06 09:37:07;;;;;;;5.18;1.48;;;7.10;99.90;;;;;;5069281;28;20112;-82
2022/02/06 09:39:38;;;;;;;5.00;1.40;;;7.70;99.90;;;;;;5069575;28;20485;-82
2022/02/06 09:42:04;;;;;;;0.73;0.40;;;8.30;99.90;;;;;;5071238;28;20016;-87
2022/02/06 09:44:31;;;;;;;0.50;0.38;;;8.60;99.90;;;;;;5069767;28;20032;-79
2022/02/06 09:46:58;;;;;;;3.63;0.30;;;8.30;99.90;;;;;;5067334;28;20032;-84
2022/02/06 09:49:30;;;;;;;0.80;0.30;;;8.00;99.90;;;;;;5070161;28;20425;-86
2022/02/06 09:51:56;;;;;;;1.40;0.70;;;7.70;99.90;;;;;;5071190;28;20037;-81
2022/02/06 09:54:24;;;;;;;1.35;0.30;;;7.60;99.90;;;;;;5071207;28;20056;-86
2022/02/06 09:56:58;;;;;;;1.30;0.30;;;7.50;99.90;;;;;;5071492;28;20040;-83
2022/02/06 09:59:27;;;;;;;0.52;0.30;;;7.40;99.90;;;;;;5071372;28;20032;-87
2022/02/06 10:01:59;;;;;;;0.95;0.20;;;7.40;99.90;;;;;;5070266;28;20020;-85
2022/02/06 10:04:31;;;;;;;1.55;0.60;;;7.30;99.90;;;;;;5071957;28;20107;-83
2022/02/06 10:07:09;;;;;;;0.25;0.10;;;7.30;99.90;;;;;;5070335;28;20024;-93
2022/02/06 10:09:49;;;;;;;0.88;0.25;;;7.30;99.90;;;;;;5068847;28;20033;-88
2022/02/06 10:12:16;;;;;;;0.50;0.35;;;7.30;99.90;;;;;;5070906;28;20039;-90
2022/02/06 10:14:42;;;;;;;0.50;0.30;;;7.40;99.90;;;;;;5071138;28;20028;-86
2022/02/06 10:17:07;;;;;;;;;;;7.40;99.90;;;;;;5074135;28;20031;-89
2022/02/06 10:19:35;;;;;;;1.02;0.40;;;7.40;99.90;;;;;;5070790;28;20273;-86
2022/02/06 10:22:25;;;;;;;1.23;0.70;;;7.40;99.90;;;;;;5072980;28;20028;-88
2022/02/06 10:24:59;;;;;;;2.38;0.40;;;7.50;99.90;;;;;;5073036;28;20025;-87
2022/02/06 10:30:43;;;;;;;0.20;0.20;;;7.40;99.90;;;;;;5073796;28;20029;-87
2022/02/06 10:33:16;;;;;;;1.42;0.45;;;7.40;99.90;;;;;;5075936;28;20457;-87
2022/02/06 10:35:47;;;;;;;1.00;0.30;;;7.40;99.90;;;;;;5077516;28;20385;-87
2022/02/06 10:38:27;;;;;;;1.38;0.63;;;7.40;99.90;;;;;;5071840;28;20039;-85
2022/02/06 10:41:16;;;;;;;1.08;0.40;;;7.40;99.90;;;;;;5074004;28;20032;-82
2022/02/06 10:44:02;;;;;;;4.03;1.52;;;7.50;99.90;;;;;;5073382;28;20028;-85
2022/02/06 10:46:33;;;;;;;2.58;0.82;;;7.50;99.90;;;;;;5072358;28;20063;-83
2022/02/06 10:49:01;;;;;;;0.77;0.70;;;7.50;99.90;;;;;;5070231;28;20028;-80
2022/02/06 10:51:49;;;;;;;3.85;1.45;;;7.50;99.90;;;;;;5070743;28;20025;-83
2022/02/06 10:54:41;;;;;;;1.92;0.60;;;7.50;99.90;;;;;;5073341;28;20029;-80
2022/02/06 10:57:28;;;;;;;1.25;0.85;;;7.50;99.90;;;;;;5046675;28;20047;-79
2022/02/06 10:59:54;;;;;;;5.45;1.13;;;7.50;99.90;;;;;;5065930;28;20021;-83
2022/02/06 11:02:56;;;;;;;5.20;2.08;;;7.50;99.90;;;;;;5067291;28;20107;-76
2022/02/06 11:05:30;;;;;;;1.45;0.73;;;7.50;99.90;;;;;;5066544;28;20196;-79
2022/02/06 11:08:00;;;;;;;0.55;0.40;;;7.50;99.90;;;;;;5068605;28;20036;-79
2022/02/06 11:10:27;;;;;;;1.02;0.38;;;7.50;99.90;;;;;;5067770;28;20028;-79
2022/02/06 11:12:59;;;;;;;0.82;0.32;;;7.50;99.90;;;;;;5068658;28;20519;-78
2022/02/06 11:15:30;;;;;;;0.98;0.63;;;7.50;99.90;;;;;;5068475;28;20036;-79
2022/02/06 11:18:02;;;;;;;0.88;0.40;;;7.60;99.90;;;;;;5068617;28;20055;-78
2022/02/06 11:20:27;;;;;;;0.38;0.20;;;7.60;99.90;;;;;;5064419;28;20021;-77
2022/02/06 11:22:57;;;;;;;0.57;0.20;;;7.60;99.90;;;;;;5063545;28;20032;-76
2022/02/06 11:25:23;;;;;;;0.90;0.30;;;7.60;99.90;;;;;;5066643;28;20036;-75
2022/02/06 11:27:48;;;;;;;0.90;0.32;;;7.60;99.90;;;;;;5068218;28;20412;-76
2022/02/06 11:30:14;;;;;;;;;;;7.70;99.90;;;;;;5048541;28;20044;-75
2022/02/06 11:32:41;;;;;;;0.70;0.50;;;7.60;99.90;;;;;;5070928;28;19965;-75
2022/02/06 11:35:12;;;;;;;0.77;0.40;;;7.60;99.90;;;;;;5070076;28;20028;-76
2022/02/06 11:44:00;;;;;;;;;;;7.60;99.90;;;;;;5072108;28;20075;-76
2022/02/06 11:46:32;;;;;;;0.60;0.20;;;7.60;99.90;;;;;;5069964;28;19908;-76
2022/02/06 11:49:09;;;;;;;2.08;0.30;;;7.60;99.90;;;;;;5071518;28;20032;-76
2022/02/06 11:51:35;;;;;;;1.13;0.20;;;7.60;99.90;;;;;;5071457;28;20522;-76
2022/02/06 11:54:23;;;;;;;;;;;7.60;99.90;;;;;;5072489;28;20123;-76
2022/02/06 11:56:49;;;;;;;;;;;7.70;99.90;;;;;;5072286;28;19912;-76
2022/02/06 11:59:15;;;;;;;1.20;0.47;;;7.70;99.90;;;;;;5069907;28;19920;-76
2022/02/06 12:01:44;;;;;;;0.20;0.20;;;7.70;99.90;;;;;;5069759;28;20031;-74
2022/02/06 12:04:19;;;;;;;0.50;0.25;;;7.70;99.90;;;;;;5069910;28;20028;-75
2022/02/06 12:06:48;;;;;;;1.58;0.57;;;7.70;99.90;;;;;;5070165;28;20485;-75
2022/02/06 12:09:21;;;;;;;0.65;0.43;;;7.70;99.90;;;;;;5066760;28;20493;-77
2022/02/06 12:12:07;;;;;;;2.15;0.25;;;7.80;99.90;;;;;;5067047;28;20044;-76
2022/02/06 12:14:39;;;;;;;1.58;0.30;;;7.80;99.90;;;;;;5067659;28;20105;-76
2022/02/06 12:20:03;;;;;;;0.47;0.20;;;7.80;99.90;;;;;;5067387;28;20028;-76
2022/02/06 12:22:29;;;;;;;1.65;0.20;;;7.80;99.90;;;;;;5067176;28;20047;-77
2022/02/06 12:25:16;;;;;;;;;;;7.70;99.90;;;;;;5068186;28;20020;-76
2022/02/06 12:27:42;;;;;;;0.65;0.20;;;7.70;99.90;;;;;;5069003;28;20266;-77
2022/02/06 12:30:18;;;;;;;0.82;0.20;;;7.70;99.90;;;;;;5069667;28;20550;-78
2022/02/06 12:32:44;;;;;;;1.58;0.55;;;7.70;99.90;;;;;;5068573;28;20496;-79
2022/02/06 12:37:56;;;;;;;0.65;0.65;;;7.70;99.90;;;;;;5068239;28;20506;-77
2022/02/06 12:40:27;;;;;;;0.22;0.13;;;7.60;99.90;;;;;;5048323;28;20041;-81
2022/02/06 12:43:02;;;;;;;2.88;0.20;;;7.60;99.90;;;;;;5068532;28;20020;-78
2022/02/06 12:45:30;;;;;;;0.10;0.10;;;7.60;99.90;;;;;;5066904;28;20523;-79
2022/02/06 12:48:07;;;;;;;0.30;0.30;;;7.60;99.90;;;;;;5048716;28;20052;-79
2022/02/06 12:50:38;;;;;;;1.00;0.20;;;7.50;99.90;;;;;;5069070;28;20028;-78
2022/02/06 12:53:10;;;;;;;1.70;0.20;;;7.50;99.90;;;;;;5069546;28;20060;-79
2022/02/06 12:55:37;;;;;;;0.68;0.38;;;7.50;99.90;;;;;;5068670;28;20489;-78
2022/02/06 12:58:07;;;;;;;0.60;0.20;;;7.40;99.90;;;;;;5066579;28;20400;-79
2022/02/06 13:00:48;;;;;;;0.20;0.10;;;7.40;99.90;;;;;;5071468;28;20032;-78
2022/02/06 13:03:38;;;;;;;0.28;0.10;;;7.40;99.90;;;;;;5071535;28;20032;-80
2022/02/06 13:06:16;;;;;;;1.27;0.10;;;7.40;99.90;;;;;;5067714;28;20472;-80
2022/02/06 13:08:44;;;;;;;0.57;0.20;;;7.40;99.90;;;;;;5068662;28;20029;-77
2022/02/06 13:11:19;;;;;;;0.30;0.10;;;7.30;99.90;;;;;;5067658;28;20479;-78
2022/02/06 13:14:14;;;;;;;0.00;0.00;;;7.30;99.90;;;;;;5066925;28;20065;-77
2022/02/06 13:17:14;;;;;;;0.08;0.08;;;7.30;99.90;;;;;;5067502;28;20036;-77
2022/02/06 13:23:13;;;;;;;2.17;0.13;;;7.20;99.90;;;;;;5068712;28;20531;-80
2022/02/06 13:25:55;;;;;;;0.98;0.50;;;7.20;99.90;;;;;;5068020;28;20056;-79
2022/02/06 13:34:17;;;;;;;1.20;0.20;;;7.10;99.90;;;;;;5074159;28;20084;-86
2022/02/06 13:36:53;;;;;;;0.80;0.30;;;7.60;99.90;;;;;;5074122;28;20017;-79
2022/02/06 13:39:30;;;;;;;0.28;0.10;;;8.00;99.90;;;;;;5057960;28;20484;-79
2022/02/06 13:41:56;;;;;;;0.70;0.30;;;7.80;99.90;;;;;;5063331;28;20032;-81
2022/02/06 13:44:26;;;;;;;1.08;0.15;;;7.60;99.90;;;;;;5061548;28;20020;-81
2022/02/06 13:46:54;;;;;;;0.70;0.57;;;7.40;99.90;;;;;;5065165;28;20090;-79
2022/02/06 13:49:34;;;;;;;0.17;0.15;;;7.30;99.90;;;;;;5065260;28;20056;-79
2022/02/06 13:52:12;;;;;;;0.32;0.10;;;7.20;99.90;;;;;;5066224;28;20036;-79
2022/02/06 13:54:48;;;;;;;0.47;0.15;;;7.10;99.90;;;;;;5067584;28;20056;-79
2022/02/06 13:57:15;;;;;;;0.57;0.20;;;7.10;99.90;;;;;;5068637;28;20489;-80
2022/02/06 13:59:43;;;;;;;0.77;0.10;;;7.00;99.90;;;;;;5068261;28;20433;-79
2022/02/06 14:02:10;;;;;;;0.22;0.10;;;7.00;99.90;;;;;;5067640;28;20023;-78
2022/02/06 14:04:39;;;;;;;0.25;0.10;;;7.00;99.90;;;;;;5066172;28;20028;-78
2022/02/06 14:07:06;;;;;;;0.95;0.10;;;7.00;99.90;;;;;;5063847;28;20039;-78
2022/02/06 14:09:44;;;;;;;1.08;0.20;;;7.00;99.90;;;;;;5066849;28;20103;-76
2022/02/06 14:12:21;;;;;;;0.55;0.20;;;7.00;99.90;;;;;;5064212;28;20024;-77
2022/02/06 14:14:50;;;;;;;1.20;0.25;;;7.00;99.90;;;;;;5067678;28;20060;-77
2022/02/06 14:17:24;;;;;;;0.47;0.20;;;7.00;99.90;;;;;;5068777;28;20044;-78
2022/02/06 14:19:51;;;;;;;0.45;0.15;;;7.00;99.90;;;;;;5067677;28;20031;-76
2022/02/06 14:22:35;;;;;;;0.28;0.20;;;7.00;99.90;;;;;;5049636;28;20025;-76
2022/02/06 14:25:15;;;;;;;0.40;0.30;;;6.90;99.90;;;;;;5067745;28;20024;-77
2022/02/06 14:27:44;;;;;;;0.57;0.40;;;6.90;99.90;;;;;;5068661;28;20078;-76
2022/02/06 14:30:31;;;;;;;0.73;0.20;;;6.90;99.90;;;;;;5057459;28;20580;-76
2022/02/06 14:33:25;;;;;;;0.40;0.10;;;6.90;99.90;;;;;;5066185;28;20044;-76
2022/02/06 14:35:57;;;;;;;1.35;0.52;;;6.90;99.90;;;;;;5068582;28;20028;-77
2022/02/06 14:39:00;;;;;;;1.05;0.30;;;6.90;99.90;;;;;;5068896;28;20024;-77
2022/02/06 14:44:28;;;;;;;2.58;0.38;;;6.80;99.90;;;;;;5026801;28;20044;-77
2022/02/06 14:46:54;;;;;;;0.45;0.20;;;6.80;99.90;;;;;;5057449;28;20036;-77
2022/02/06 14:49:19;;;;;;;0.32;0.20;;;6.80;99.90;;;;;;5067966;28;20641;-77
2022/02/06 14:51:48;;;;;;;;;;;6.70;99.90;;;;;;5067519;28;20060;-78
2022/02/06 14:54:20;;;;;;;0.20;0.20;;;6.70;99.90;;;;;;5067712;28;19909;-77
2022/02/06 14:56:48;;;;;;;0.40;0.40;;;6.70;99.90;;;;;;5062660;28;20059;-75
2022/02/06 14:59:14;;;;;;;0.15;0.10;;;6.70;99.90;;;;;;5067802;28;20622;-75
2022/02/06 15:01:39;;;;;;;0.50;0.45;;;6.60;99.90;;;;;;5066693;28;20036;-75
2022/02/06 15:04:05;;;;;;;0.70;0.20;;;6.50;99.90;;;;;;5070414;28;20082;-81
2022/02/06 15:06:32;;;;;;;2.17;0.25;;;6.50;99.90;;;;;;5074502;28;20025;-79
2022/02/06 15:08:58;;;;;;;0.80;0.10;;;6.40;99.90;;;;;;5074414;28;20542;-83
2022/02/06 15:11:23;;;;;;;0.88;0.20;;;6.40;99.90;;;;;;5073237;28;20291;-77
2022/02/06 15:13:52;;;;;;;0.57;0.10;;;6.40;99.90;;;;;;5071521;28;20527;-81
2022/02/06 15:16:22;;;;;;;0.30;0.10;;;6.20;99.90;;;;;;5070317;28;20048;-77
2022/02/06 15:19:00;;;;;;;0.30;0.10;;;6.10;99.90;;;;;;5069727;28;20025;-80
2022/02/06 15:23:55;;;;;;;0.10;0.10;;;5.80;99.90;;;;;;5061820;28;20057;-76
2022/02/06 15:26:21;;;;;;;0.85;0.20;;;5.70;99.90;;;;;;5065036;28;20024;-75
2022/02/06 15:28:50;;;;;;;0.20;0.10;;;5.60;99.90;;;;;;5066977;28;20111;-76
2022/02/06 15:31:16;;;;;;;2.13;1.95;;;5.50;99.90;;;;;;5063864;28;20031;-73
2022/02/06 15:33:43;;;;;;;0.13;0.10;;;5.50;99.90;;;;;;5054680;28;20382;-73
2022/02/06 15:36:09;;;;;;;0.08;0.00;;;5.40;99.90;;;;;;5056427;28;20393;-73
2022/02/06 15:38:36;;;;;;;;;;;5.30;99.90;;;;;;5057675;28;20595;-73
2022/02/06 15:41:02;;;;;;;0.57;0.32;;;5.30;99.90;;;;;;5055535;28;19924;-74
2022/02/06 15:43:27;;;;;;;0.30;0.20;;;5.30;99.90;;;;;;5057534;28;20020;-74
2022/02/06 15:45:53;;;;;;;1.35;0.30;;;5.20;99.90;;;;;;5056345;28;20059;-74